Wheeling Ohio County Airport Wheeling US
ICAO: KHLG
IATA: HLG
Category: Medium
Scheduled Services: No

Elevation: 1195 ft
TransAlt. 18000 ft.

Airport Communications:
PITTSBURG APP/DEP:118.65
ASOS:127.375
CTAF:118.1
GND:121.75
ELKINS RDO:118.65
TWR:118.1
UNICOM:122.95

KHLG Zoom In..

If you have problems with the map follow the link
https://www.worldairports.se/pages/airport.php?
ICAO=KHLG

Runways:

(A) RW 03 length 5002 ft width 150 ft
ILS 109.70 / hdg 33

(B) RW 16 length 4499 ft width 150 ft
---- / hdg 158

(C) RW 21 length 5002 ft width 150 ft
---- / hdg 213

(D) RW 34 length 4499 ft width 150 ft
---- / hdg 338

Location; KHLG
Day. 12 / Time. 06.53 Zulu
* Altimeter: 30.56
* Temperature: -06° c. -21.2°f.
* Wind from: 040° Speed 05 kn.
Dewpoint: -11° c.
Visibility: 10 Statute Miles.
Clouds: Clear (automated report).

KHLG 120653Z AUTO 04005KT 10SM CLR M06/M11 A3056 RMK AO2 SLP368 T10611106


Wind From 040°
Speed 05 kn.

 
 
jpsmedia worldairports.se 2019   terms of use